Time;durP1;ratioP1;P1;durP2;ratioP2;P2;SDS_P1;SDS_P2;PMS_P1;PMS_P2;Temp;Humidity;BMP_temperature;BMP_pressure;BME280_temperature;BME280_humidity;BME280_pressure;Samples;Min_cycle;Max_cycle;Signal;HPM_P1;HPM_P2
2023/01/09 10:30:39;;;;;;;2.60;0.97;;;7.60;99.90;;;;;;4878251;29;20307;-71
2023/01/09 10:33:28;;;;;;;0.43;0.30;;;7.70;99.90;;;;;;4880531;29;20258;-71
2023/01/09 10:36:19;;;;;;;3.00;1.20;;;7.70;99.90;;;;;;4880455;29;20231;-70
2023/01/09 10:38:49;;;;;;;1.00;0.50;;;7.70;99.90;;;;;;4880182;29;20222;-71
2023/01/09 10:41:24;;;;;;;0.97;0.33;;;7.70;99.90;;;;;;4879801;29;20211;-73
2023/01/09 10:43:56;;;;;;;1.83;0.13;;;7.70;99.90;;;;;;4879294;29;20213;-71
2023/01/09 10:46:30;;;;;;;0.70;0.30;;;7.70;99.90;;;;;;4879048;29;20237;-71
2023/01/09 10:49:01;;;;;;;1.00;0.30;;;7.60;99.90;;;;;;4879045;29;20211;-70
2023/01/09 10:51:34;;;;;;;0.57;0.50;;;7.60;99.90;;;;;;4879028;29;20620;-71
2023/01/09 10:54:02;;;;;;;1.03;0.40;;;7.70;99.90;;;;;;4879672;29;20243;-71
2023/01/09 10:56:32;;;;;;;1.27;0.37;;;7.70;99.90;;;;;;4879611;29;20235;-73
2023/01/09 10:58:59;;;;;;;2.47;0.40;;;7.80;99.90;;;;;;4879790;29;20211;-72
2023/01/09 11:01:30;;;;;;;1.17;0.50;;;7.80;99.90;;;;;;4878954;29;20211;-73
2023/01/09 11:03:58;;;;;;;2.10;0.40;;;7.90;99.90;;;;;;4879495;29;20211;-72
2023/01/09 11:06:36;;;;;;;4.50;0.80;;;7.90;99.90;;;;;;4879309;29;20231;-73
2023/01/09 11:09:04;;;;;;;1.90;0.43;;;8.00;99.90;;;;;;4879571;29;20211;-73
2023/01/09 11:11:33;;;;;;;1.07;0.40;;;8.00;99.90;;;;;;4879403;29;20215;-73
2023/01/09 11:14:05;;;;;;;0.83;0.37;;;8.00;99.90;;;;;;4879501;29;20234;-73
2023/01/09 11:16:34;;;;;;;4.30;0.50;;;7.80;99.90;;;;;;4879387;29;20235;-72
2023/01/09 11:19:01;;;;;;;1.83;0.40;;;7.80;99.90;;;;;;4879524;29;20211;-72
2023/01/09 11:21:34;;;;;;;1.70;0.50;;;7.80;99.90;;;;;;4879405;29;20360;-71
2023/01/09 11:24:29;;;;;;;0.50;0.37;;;7.90;99.90;;;;;;4879205;29;20222;-71
2023/01/09 11:27:22;;;;;;;2.03;0.63;;;7.90;99.90;;;;;;4879102;29;20636;-71
2023/01/09 11:30:26;;;;;;;0.73;0.57;;;7.80;99.90;;;;;;4879051;29;20219;-71
2023/01/09 11:32:56;;;;;;;2.57;0.50;;;7.80;99.90;;;;;;4879012;29;20338;-70
2023/01/09 11:35:27;;;;;;;2.00;0.60;;;7.70;99.90;;;;;;4878803;29;20269;-70
2023/01/09 11:38:05;;;;;;;2.20;0.50;;;7.80;99.90;;;;;;4877043;29;20291;-71
2023/01/09 11:40:37;;;;;;;1.23;0.53;;;7.80;99.90;;;;;;4869414;29;20216;-72
2023/01/09 11:43:12;;;;;;;1.10;0.50;;;7.90;99.90;;;;;;4858853;29;20226;-72
2023/01/09 11:45:46;;;;;;;0.80;0.40;;;7.80;99.90;;;;;;4871957;29;20230;-71
2023/01/09 11:48:27;;;;;;;1.90;0.60;;;7.80;99.90;;;;;;4877223;29;20211;-71
2023/01/09 11:50:56;;;;;;;3.93;0.50;;;7.80;99.90;;;;;;4877497;29;20207;-72
2023/01/09 11:53:23;;;;;;;1.10;0.70;;;7.80;99.90;;;;;;4895464;29;20234;-73
2023/01/09 11:55:56;;;;;;;1.20;0.53;;;7.80;99.90;;;;;;4895467;29;20222;-70
2023/01/09 11:58:23;;;;;;;0.70;0.60;;;7.80;99.90;;;;;;4881996;29;20306;-72
2023/01/09 12:01:00;;;;;;;3.23;0.80;;;7.70;99.90;;;;;;4883706;29;20206;-73
2023/01/09 12:03:45;;;;;;;3.13;1.47;;;7.80;99.90;;;;;;4883189;29;20219;-71
2023/01/09 12:06:22;;;;;;;4.20;0.50;;;7.90;99.90;;;;;;4883506;29;20235;-74
2023/01/09 12:08:56;;;;;;;2.90;0.63;;;8.10;99.90;;;;;;4882902;29;20206;-73
2023/01/09 12:11:29;;;;;;;2.20;0.50;;;8.20;99.90;;;;;;4883279;29;20222;-73
2023/01/09 12:14:24;;;;;;;2.67;0.80;;;8.30;99.90;;;;;;4883127;29;20239;-72
2023/01/09 12:17:05;;;;;;;5.47;0.80;;;8.40;99.90;;;;;;4882912;29;20226;-70
2023/01/09 12:19:52;;;;;;;2.63;0.70;;;8.40;99.90;;;;;;4883257;29;20221;-71
2023/01/09 12:22:29;;;;;;;0.47;0.30;;;8.30;99.90;;;;;;4883776;29;20213;-70
2023/01/09 12:25:20;;;;;;;2.57;0.60;;;8.40;99.90;;;;;;4882900;29;20238;-73
2023/01/09 12:28:00;;;;;;;2.53;0.80;;;8.50;99.90;;;;;;4883584;29;20210;-70
2023/01/09 12:30:42;;;;;;;2.40;0.70;;;8.50;99.90;;;;;;4870926;29;20535;-72
2023/01/09 12:33:26;;;;;;;1.03;0.50;;;8.60;99.90;;;;;;4878993;29;20263;-70
2023/01/09 12:36:04;;;;;;;2.10;0.80;;;8.60;99.90;;;;;;4878078;29;20773;-73
2023/01/09 12:38:46;;;;;;;1.53;0.80;;;8.60;99.90;;;;;;4883044;29;20218;-70
2023/01/09 12:41:28;;;;;;;3.33;0.93;;;8.50;99.90;;;;;;4882378;29;20738;-74
2023/01/09 12:44:09;;;;;;;5.10;1.00;;;8.40;99.90;;;;;;4883219;29;20215;-73
2023/01/09 12:46:41;;;;;;;0.60;0.40;;;8.40;99.90;;;;;;4883179;29;20227;-72
2023/01/09 12:49:27;;;;;;;4.30;0.83;;;8.40;99.90;;;;;;4883546;29;20302;-73
2023/01/09 12:52:03;;;;;;;3.23;0.70;;;8.50;99.90;;;;;;4883567;29;20223;-73
2023/01/09 12:54:38;;;;;;;2.30;0.57;;;8.70;99.90;;;;;;4882801;29;20242;-74
2023/01/09 12:57:10;;;;;;;2.00;0.70;;;8.90;99.90;;;;;;4896986;29;20220;-72
2023/01/09 12:59:41;;;;;;;0.97;0.47;;;9.00;99.90;;;;;;4888142;29;20215;-73
2023/01/09 13:02:18;;;;;;;2.27;0.77;;;8.80;99.90;;;;;;4882731;29;20565;-73
2023/01/09 13:04:52;;;;;;;1.07;0.80;;;9.00;99.90;;;;;;4883383;29;20635;-72
2023/01/09 13:07:23;;;;;;;4.30;0.70;;;9.10;99.90;;;;;;4883060;29;20215;-73
2023/01/09 13:09:53;;;;;;;5.27;0.80;;;9.20;99.90;;;;;;4881125;29;20222;-73
2023/01/09 13:12:23;;;;;;;2.97;0.73;;;9.30;99.90;;;;;;4880600;29;20233;-72
2023/01/09 13:14:57;;;;;;;6.33;0.97;;;9.30;99.90;;;;;;4879846;29;20239;-72
2023/01/09 13:17:29;;;;;;;4.00;0.80;;;9.50;99.90;;;;;;4879312;29;20211;-73
2023/01/09 13:19:56;;;;;;;5.97;0.90;;;9.50;99.90;;;;;;4879803;29;20217;-72
2023/01/09 13:22:28;;;;;;;3.10;0.67;;;9.60;99.90;;;;;;4880308;29;20215;-76
2023/01/09 13:25:08;;;;;;;5.00;0.80;;;9.50;99.90;;;;;;4879338;29;20243;-73
2023/01/09 13:27:39;;;;;;;0.57;0.50;;;9.40;99.90;;;;;;4880137;29;20218;-72
2023/01/09 13:30:17;;;;;;;6.57;0.80;;;9.30;99.90;;;;;;4879327;29;20211;-72
2023/01/09 13:32:55;;;;;;;3.37;0.90;;;9.40;99.90;;;;;;4885855;29;20241;-73
2023/01/09 13:35:21;;;;;;;4.80;0.90;;;9.60;99.90;;;;;;4879950;29;20326;-75
2023/01/09 13:37:53;;;;;;;5.07;1.20;;;9.60;99.90;;;;;;4879306;29;20207;-71
2023/01/09 13:40:31;;;;;;;4.80;0.80;;;9.70;99.90;;;;;;4862482;29;20226;-72
2023/01/09 13:43:02;;;;;;;4.30;1.10;;;9.70;99.90;;;;;;4862466;29;20271;-72
2023/01/09 13:45:31;;;;;;;3.13;0.60;;;9.70;99.90;;;;;;4862194;29;20239;-72
2023/01/09 13:48:28;;;;;;;4.33;0.70;;;9.80;99.90;;;;;;4862862;29;20208;-73
2023/01/09 13:51:25;;;;;;;3.97;0.70;;;9.90;99.90;;;;;;4885702;29;20218;-72
2023/01/09 13:53:53;;;;;;;1.60;0.70;;;9.90;99.90;;;;;;4898919;29;20717;-72
2023/01/09 13:56:20;;;;;;;6.27;0.80;;;9.90;99.90;;;;;;4895814;29;20255;-71
2023/01/09 13:59:01;;;;;;;3.40;0.90;;;9.80;99.90;;;;;;4880261;29;20207;-71
2023/01/09 14:01:46;;;;;;;1.77;0.87;;;9.70;99.90;;;;;;4880607;29;20263;-71
2023/01/09 14:04:42;;;;;;;1.63;0.70;;;9.50;99.90;;;;;;4880597;29;20213;-72
2023/01/09 14:07:30;;;;;;;3.10;0.80;;;9.50;99.90;;;;;;4880784;29;20241;-71
2023/01/09 14:10:01;;;;;;;5.43;0.80;;;9.50;99.90;;;;;;4877447;29;20230;-71
2023/01/09 14:12:31;;;;;;;3.13;0.80;;;9.40;99.90;;;;;;4880503;29;20211;-71
2023/01/09 14:15:01;;;;;;;3.93;0.80;;;9.20;99.90;;;;;;4879901;29;20249;-71
2023/01/09 14:17:33;;;;;;;7.20;0.80;;;9.20;99.90;;;;;;4880299;29;20219;-71
2023/01/09 14:20:04;;;;;;;2.90;0.67;;;9.10;99.90;;;;;;4880375;29;20214;-71
2023/01/09 14:22:34;;;;;;;2.60;0.60;;;9.00;99.90;;;;;;4879983;29;20211;-71
2023/01/09 14:25:07;;;;;;;2.67;0.77;;;9.00;99.90;;;;;;4880051;29;20342;-70
2023/01/09 14:28:19;;;;;;;4.10;0.90;;;8.90;99.90;;;;;;4879966;29;20207;-70
2023/01/09 14:31:05;;;;;;;3.47;1.00;;;8.90;99.90;;;;;;4861618;29;20222;-70
2023/01/09 14:33:32;;;;;;;2.13;0.93;;;8.70;99.90;;;;;;4868165;29;20203;-70
2023/01/09 14:36:09;;;;;;;3.40;0.90;;;8.60;99.90;;;;;;4879785;29;20628;-70
2023/01/09 14:38:41;;;;;;;4.13;1.10;;;8.60;99.90;;;;;;4879363;29;20207;-70
2023/01/09 14:41:19;;;;;;;7.37;1.00;;;8.60;99.90;;;;;;4879817;29;20627;-70
2023/01/09 14:43:56;;;;;;;3.97;0.90;;;8.50;99.90;;;;;;4879931;29;20207;-69
2023/01/09 14:46:24;;;;;;;2.83;0.80;;;8.50;99.90;;;;;;4879835;29;20598;-70
2023/01/09 14:49:03;;;;;;;2.53;0.70;;;8.40;99.90;;;;;;4879716;29;20222;-70
2023/01/09 14:51:34;;;;;;;3.73;0.80;;;8.40;99.90;;;;;;4879730;29;20218;-70
2023/01/09 14:54:07;;;;;;;1.43;0.70;;;8.40;99.90;;;;;;4879653;29;20238;-70
2023/01/09 14:56:45;;;;;;;10.33;1.73;;;8.30;99.90;;;;;;4879829;29;20238;-70
2023/01/09 14:59:13;;;;;;;3.67;1.10;;;8.30;99.90;;;;;;4879481;29;20674;-72
2023/01/09 15:01:43;;;;;;;3.27;0.90;;;8.40;99.90;;;;;;4879866;29;20222;-70
2023/01/09 15:04:24;;;;;;;5.63;0.77;;;8.40;99.90;;;;;;4879883;29;20222;-70
2023/01/09 15:06:51;;;;;;;6.50;0.80;;;8.30;99.90;;;;;;4879376;29;20227;-70
2023/01/09 15:09:23;;;;;;;3.00;0.70;;;8.30;99.90;;;;;;4879175;29;20702;-70
2023/01/09 15:11:52;;;;;;;4.53;0.60;;;8.30;99.90;;;;;;4879871;29;20566;-70
2023/01/09 15:14:30;;;;;;;6.70;0.80;;;8.40;99.90;;;;;;4879206;29;20246;-70
2023/01/09 15:16:58;;;;;;;2.80;0.70;;;8.40;99.90;;;;;;4879402;29;20737;-72
2023/01/09 15:19:25;;;;;;;3.83;0.53;;;8.30;99.90;;;;;;4879225;29;20212;-70
2023/01/09 15:22:00;;;;;;;2.67;0.87;;;8.20;99.90;;;;;;4879137;29;20211;-72
2023/01/09 15:24:29;;;;;;;1.93;0.60;;;8.10;99.90;;;;;;4878796;29;20211;-69
2023/01/09 15:26:59;;;;;;;1.17;0.77;;;8.00;99.90;;;;;;4878810;29;20233;-72
2023/01/09 15:29:27;;;;;;;4.73;1.20;;;7.90;99.90;;;;;;4879082;29;20215;-72
2023/01/09 15:31:56;;;;;;;3.30;0.90;;;8.00;99.90;;;;;;4878866;29;20545;-72
2023/01/09 15:34:25;;;;;;;4.33;0.80;;;8.00;99.90;;;;;;4878461;29;20270;-72
2023/01/09 15:36:53;;;;;;;1.20;0.60;;;8.10;99.90;;;;;;4878968;29;20239;-71
2023/01/09 15:39:25;;;;;;;4.07;0.80;;;8.10;99.90;;;;;;4879147;29;20215;-72
2023/01/09 15:44:43;;;;;;;2.17;0.53;;;8.00;99.90;;;;;;4878855;29;20214;-72
2023/01/09 15:47:17;;;;;;;2.53;0.57;;;8.10;99.90;;;;;;4879150;29;20211;-72
2023/01/09 15:49:45;;;;;;;2.43;0.50;;;8.10;99.90;;;;;;4878979;29;20211;-72
2023/01/09 15:52:15;;;;;;;2.30;0.93;;;8.00;99.90;;;;;;4879191;29;20227;-73
2023/01/09 15:54:44;;;;;;;1.03;0.50;;;8.00;99.90;;;;;;4879174;29;20239;-72
2023/01/09 15:57:34;;;;;;;3.10;0.60;;;8.00;99.90;;;;;;4878824;29;20215;-71
2023/01/09 16:00:32;;;;;;;1.53;0.73;;;7.90;99.90;;;;;;4878960;29;20278;-72
2023/01/09 16:03:11;;;;;;;2.67;0.97;;;7.80;99.90;;;;;;4878998;29;20234;-72
2023/01/09 16:05:42;;;;;;;1.13;0.70;;;7.70;99.90;;;;;;4878458;29;20710;-72
2023/01/09 16:08:22;;;;;;;2.87;0.90;;;7.50;99.90;;;;;;4878910;29;20294;-71
2023/01/09 16:10:51;;;;;;;4.10;1.00;;;7.50;99.90;;;;;;4878848;29;20206;-72
2023/01/09 16:13:20;;;;;;;2.43;0.70;;;7.50;99.90;;;;;;4878593;29;20217;-71
2023/01/09 16:15:50;;;;;;;3.47;0.83;;;7.50;99.90;;;;;;4878379;29;20249;-72
2023/01/09 16:18:23;;;;;;;2.30;0.97;;;7.60;99.90;;;;;;4878269;29;20235;-72
2023/01/09 16:21:00;;;;;;;2.10;0.70;;;7.70;99.90;;;;;;4878822;29;20207;-72
2023/01/09 16:23:30;;;;;;;3.07;1.17;;;7.80;99.90;;;;;;4878934;29;20228;-72
2023/01/09 16:26:04;;;;;;;3.17;1.10;;;7.90;99.90;;;;;;4879154;29;20238;-72
2023/01/09 16:28:30;;;;;;;2.43;1.37;;;7.90;99.90;;;;;;4878187;29;20225;-71
2023/01/09 16:31:01;;;;;;;2.23;1.00;;;7.90;99.90;;;;;;4878625;29;20207;-72
2023/01/09 16:33:30;;;;;;;3.10;1.00;;;7.90;99.90;;;;;;4878446;29;20663;-72
2023/01/09 16:35:58;;;;;;;5.57;0.97;;;8.10;99.90;;;;;;4878285;29;20243;-72
2023/01/09 16:38:25;;;;;;;4.20;1.00;;;8.10;99.90;;;;;;4867582;29;20200;-72
2023/01/09 16:43:47;;;;;;;4.47;1.43;;;7.90;99.90;;;;;;4868369;29;20215;-71
2023/01/09 16:46:17;;;;;;;3.60;1.07;;;7.90;99.90;;;;;;4871170;29;20222;-71
2023/01/09 16:48:44;;;;;;;2.63;0.90;;;7.80;99.90;;;;;;4871185;29;20203;-71
2023/01/09 16:51:15;;;;;;;3.37;1.27;;;7.80;99.90;;;;;;4871349;29;20218;-71
2023/01/09 16:53:42;;;;;;;2.80;1.03;;;7.70;99.90;;;;;;4870945;29;20212;-73
2023/01/09 16:56:14;;;;;;;3.73;1.00;;;7.80;99.90;;;;;;4878426;29;20239;-71
2023/01/09 16:58:41;;;;;;;3.17;0.80;;;7.70;99.90;;;;;;4881325;29;20670;-73
2023/01/09 17:01:09;;;;;;;3.93;1.20;;;7.70;99.90;;;;;;4881227;29;20279;-73
2023/01/09 17:03:37;;;;;;;2.20;1.10;;;7.60;99.90;;;;;;4881430;29;20693;-72
2023/01/09 17:06:05;;;;;;;4.83;1.40;;;7.60;99.90;;;;;;4881197;29;20235;-72
2023/01/09 17:08:34;;;;;;;4.60;1.40;;;7.60;99.90;;;;;;4881605;29;20246;-71
2023/01/09 17:11:01;;;;;;;2.03;1.00;;;7.60;99.90;;;;;;4881676;29;20211;-71
2023/01/09 17:13:27;;;;;;;3.53;1.00;;;7.60;99.90;;;;;;4881560;29;20219;-73
2023/01/09 17:15:56;;;;;;;2.80;1.00;;;7.60;99.90;;;;;;4881064;29;20250;-71
2023/01/09 17:18:24;;;;;;;4.57;1.70;;;7.50;99.90;;;;;;4881075;29;20215;-71
2023/01/09 17:20:53;;;;;;;2.67;1.00;;;7.40;99.90;;;;;;4881397;29;20247;-73
2023/01/09 17:23:24;;;;;;;2.07;1.10;;;7.40;99.90;;;;;;4881084;29;20234;-72
2023/01/09 17:28:43;;;;;;;4.10;1.33;;;7.50;99.90;;;;;;4881189;29;20226;-73
2023/01/09 17:31:11;;;;;;;5.00;1.57;;;7.40;99.90;;;;;;4881024;29;20222;-71
2023/01/09 17:33:40;;;;;;;4.67;1.60;;;7.40;99.90;;;;;;4881411;29;20211;-71
2023/01/09 17:36:18;;;;;;;2.63;1.40;;;7.40;99.90;;;;;;4881194;29;20245;-71
2023/01/09 17:38:46;;;;;;;5.03;1.53;;;7.40;99.90;;;;;;4880708;29;20726;-73
2023/01/09 17:41:13;;;;;;;3.93;1.70;;;7.50;99.90;;;;;;4877292;29;20730;-72
2023/01/09 17:43:40;;;;;;;5.30;1.60;;;7.50;99.90;;;;;;4879888;29;20215;-73
2023/01/09 17:46:14;;;;;;;3.10;1.60;;;7.50;99.90;;;;;;4879818;29;20237;-74
2023/01/09 17:48:41;;;;;;;4.67;2.37;;;7.50;99.90;;;;;;4878978;29;20214;-71
2023/01/09 17:51:10;;;;;;;4.47;1.60;;;7.60;99.90;;;;;;4879218;29;20219;-72
2023/01/09 17:53:37;;;;;;;5.40;1.70;;;7.60;99.90;;;;;;4879542;29;20225;-72
2023/01/09 17:56:04;;;;;;;5.40;1.57;;;7.50;99.90;;;;;;4877808;29;20610;-72
2023/01/09 17:58:31;;;;;;;4.43;1.53;;;7.40;99.90;;;;;;4879795;29;20215;-72
2023/01/09 18:00:59;;;;;;;3.43;1.33;;;7.30;99.90;;;;;;4878679;29;20671;-72
2023/01/09 18:03:32;;;;;;;5.57;1.30;;;7.30;99.90;;;;;;4879033;29;20211;-70
2023/01/09 18:05:59;;;;;;;3.93;1.80;;;7.30;99.90;;;;;;4879124;29;20259;-71
2023/01/09 18:08:27;;;;;;;7.83;1.77;;;7.30;99.90;;;;;;4879263;29;20211;-73
2023/01/09 18:10:54;;;;;;;2.63;0.77;;;7.20;99.90;;;;;;4878379;29;20563;-72
2023/01/09 18:13:21;;;;;;;3.60;1.10;;;7.30;99.90;;;;;;4879450;29;20211;-73
2023/01/09 18:15:48;;;;;;;2.57;1.00;;;7.20;99.90;;;;;;4878971;29;20251;-72
2023/01/09 18:18:15;;;;;;;3.27;1.10;;;7.20;99.90;;;;;;4879104;29;20215;-73
2023/01/09 18:20:44;;;;;;;5.73;1.17;;;7.20;99.90;;;;;;4880402;29;20674;-72
2023/01/09 18:23:11;;;;;;;3.00;1.40;;;7.30;99.90;;;;;;4879856;29;20211;-72
2023/01/09 18:25:41;;;;;;;2.40;0.83;;;7.30;99.90;;;;;;4880308;29;20313;-71
2023/01/09 18:28:08;;;;;;;3.57;0.80;;;7.30;99.90;;;;;;4880201;29;20766;-72
2023/01/09 18:30:35;;;;;;;4.23;0.83;;;7.40;99.90;;;;;;4880088;29;20215;-72
2023/01/09 18:33:02;;;;;;;1.47;0.70;;;7.40;99.90;;;;;;4879923;29;20672;-72
2023/01/09 18:35:30;;;;;;;3.70;0.70;;;7.40;99.90;;;;;;4879816;29;20606;-72
2023/01/09 18:37:57;;;;;;;2.70;0.90;;;7.30;99.90;;;;;;4879741;29;20279;-72
2023/01/09 18:40:24;;;;;;;2.70;0.70;;;7.30;99.90;;;;;;4879845;29;20222;-73
2023/01/09 18:42:52;;;;;;;3.10;0.60;;;7.30;99.90;;;;;;4879826;29;20211;-72
2023/01/09 18:45:19;;;;;;;1.93;0.60;;;7.20;99.90;;;;;;4879664;29;20239;-73
2023/01/09 18:47:45;;;;;;;0.70;0.50;;;7.20;99.90;;;;;;4879634;29;20211;-73
2023/01/09 18:50:13;;;;;;;1.03;0.50;;;7.20;99.90;;;;;;4879427;29;20215;-72
2023/01/09 18:52:39;;;;;;;2.03;0.70;;;7.20;99.90;;;;;;4879769;29;20211;-72
2023/01/09 18:55:07;;;;;;;1.00;0.50;;;7.30;99.90;;;;;;4879564;29;20235;-71
2023/01/09 18:57:34;;;;;;;2.83;0.50;;;7.30;99.90;;;;;;4879834;29;20222;-73
2023/01/09 19:00:03;;;;;;;3.00;1.00;;;7.20;99.90;;;;;;4879436;29;20211;-71
2023/01/09 19:02:29;;;;;;;4.43;0.90;;;7.10;99.90;;;;;;4879381;29;20207;-73
2023/01/09 19:04:56;;;;;;;2.33;0.80;;;7.10;99.90;;;;;;4879027;29;20235;-73
2023/01/09 19:07:23;;;;;;;1.53;0.93;;;6.90;99.90;;;;;;4879009;29;20221;-71
2023/01/09 19:09:50;;;;;;;5.53;1.20;;;6.80;99.90;;;;;;4878868;29;20222;-72
2023/01/09 19:12:16;;;;;;;1.47;0.63;;;6.80;99.90;;;;;;4873822;29;20575;-74
2023/01/09 19:14:43;;;;;;;1.77;1.00;;;6.80;99.90;;;;;;4877882;29;20571;-74
2023/01/09 19:17:11;;;;;;;4.40;0.93;;;6.80;99.90;;;;;;4878377;29;20237;-73
2023/01/09 19:19:38;;;;;;;1.73;0.70;;;6.80;99.90;;;;;;4879398;29;20222;-73
2023/01/09 19:22:05;;;;;;;5.97;1.37;;;6.70;99.90;;;;;;4865774;29;20224;-74
2023/01/09 19:24:32;;;;;;;3.57;1.00;;;6.80;99.90;;;;;;4862945;29;20581;-71
2023/01/09 19:26:58;;;;;;;4.97;0.97;;;6.70;99.90;;;;;;4867809;29;20231;-72
2023/01/09 19:29:25;;;;;;;2.83;1.00;;;6.70;99.90;;;;;;4871785;29;20294;-72
2023/01/09 19:31:52;;;;;;;5.23;1.10;;;6.70;99.90;;;;;;4869992;29;20215;-73
2023/01/09 19:34:21;;;;;;;3.13;1.03;;;6.70;99.90;;;;;;4873704;29;20647;-71
2023/01/09 19:36:47;;;;;;;2.53;0.90;;;6.70;99.90;;;;;;4876871;29;20281;-74
2023/01/09 19:39:14;;;;;;;2.70;0.80;;;6.70;99.90;;;;;;4875998;29;20272;-73
2023/01/09 19:41:42;;;;;;;1.87;0.60;;;6.90;99.90;;;;;;4878391;29;20211;-72
2023/01/09 19:44:09;;;;;;;3.27;0.63;;;7.00;99.90;;;;;;4874209;29;20211;-73
2023/01/09 19:46:36;;;;;;;8.47;1.10;;;7.20;99.90;;;;;;4876137;29;20325;-72
2023/01/09 19:49:04;;;;;;;5.03;0.33;;;7.20;99.90;;;;;;4872887;29;20211;-71
2023/01/09 19:51:33;;;;;;;3.37;0.70;;;7.20;99.90;;;;;;4874781;29;20214;-72
2023/01/09 19:54:01;;;;;;;4.40;0.70;;;7.30;99.90;;;;;;4872591;29;20215;-71
2023/01/09 19:56:32;;;;;;;6.13;0.60;;;7.30;99.90;;;;;;4866426;29;20243;-71
2023/01/09 19:59:01;;;;;;;1.83;0.60;;;7.40;99.90;;;;;;4875291;29;20210;-71
2023/01/09 20:01:30;;;;;;;3.80;0.77;;;7.40;99.90;;;;;;4866113;29;20207;-72
2023/01/09 20:04:01;;;;;;;3.73;0.80;;;7.40;99.90;;;;;;4865094;29;20215;-71
2023/01/09 20:06:29;;;;;;;5.87;1.13;;;7.40;99.90;;;;;;4876338;29;20724;-72
2023/01/09 20:08:58;;;;;;;4.97;1.07;;;7.40;99.90;;;;;;4862830;29;20703;-72
2023/01/09 20:11:28;;;;;;;4.23;1.03;;;7.40;99.90;;;;;;4875388;29;20679;-72
2023/01/09 20:13:55;;;;;;;3.43;1.00;;;7.40;99.90;;;;;;4870372;29;20218;-71
2023/01/09 20:16:26;;;;;;;1.07;0.83;;;7.40;99.90;;;;;;4873563;29;20244;-72
2023/01/09 20:18:53;;;;;;;2.13;1.00;;;7.40;99.90;;;;;;4871868;29;20298;-71
2023/01/09 20:21:23;;;;;;;5.77;1.10;;;7.40;99.90;;;;;;4876229;29;20223;-72
2023/01/09 20:23:51;;;;;;;4.27;0.73;;;7.30;99.90;;;;;;4873164;29;20214;-72
2023/01/09 20:26:20;;;;;;;2.43;1.07;;;7.30;99.90;;;;;;4874714;29;20242;-72
2023/01/09 20:28:47;;;;;;;3.90;0.90;;;7.30;99.90;;;;;;4871651;29;20218;-73
2023/01/09 20:31:16;;;;;;;5.07;1.30;;;7.30;99.90;;;;;;4870535;29;20212;-72
2023/01/09 20:33:43;;;;;;;5.27;1.00;;;7.20;99.90;;;;;;4880260;29;20240;-72
2023/01/09 20:36:10;;;;;;;3.37;1.10;;;7.20;99.90;;;;;;4871377;29;20243;-74
2023/01/09 20:38:38;;;;;;;4.57;1.00;;;7.10;99.90;;;;;;4880133;29;20570;-72
2023/01/09 20:41:09;;;;;;;2.80;1.20;;;6.90;99.90;;;;;;4867903;29;20572;-71
2023/01/09 20:43:39;;;;;;;1.83;0.80;;;6.80;99.90;;;;;;4880566;29;20222;-72
2023/01/09 20:46:06;;;;;;;2.73;1.00;;;6.80;99.90;;;;;;4873518;29;20238;-73
2023/01/09 20:48:33;;;;;;;3.17;0.90;;;6.70;99.90;;;;;;4879739;29;20215;-73
2023/01/09 20:51:04;;;;;;;3.83;1.03;;;6.70;99.90;;;;;;4870985;29;20211;-73
2023/01/09 20:53:31;;;;;;;5.60;1.70;;;6.70;99.90;;;;;;4867106;29;20260;-71
2023/01/09 20:56:00;;;;;;;3.33;1.13;;;6.60;99.90;;;;;;4872023;29;20764;-72
2023/01/09 20:58:27;;;;;;;5.57;1.23;;;6.50;99.90;;;;;;4875634;29;20220;-72
2023/01/09 21:00:55;;;;;;;2.90;1.13;;;6.50;99.90;;;;;;4880406;29;20579;-72
2023/01/09 21:03:22;;;;;;;5.83;1.40;;;6.50;99.90;;;;;;4874445;29;20220;-71
2023/01/09 21:05:49;;;;;;;5.83;1.40;;;6.40;99.90;;;;;;4866235;29;20690;-72
2023/01/09 21:08:16;;;;;;;3.20;1.57;;;6.30;99.90;;;;;;4871886;29;20238;-72
2023/01/09 21:10:42;;;;;;;6.53;1.77;;;6.20;99.90;;;;;;4865308;29;20553;-72
2023/01/09 21:13:09;;;;;;;7.13;2.00;;;6.10;99.90;;;;;;4874024;29;20208;-73
2023/01/09 21:15:37;;;;;;;6.10;1.80;;;6.10;99.90;;;;;;4876216;29;20234;-73
2023/01/09 21:18:06;;;;;;;4.03;1.60;;;6.00;99.90;;;;;;4870400;29;20831;-71
2023/01/09 21:20:32;;;;;;;7.27;1.87;;;6.00;99.90;;;;;;4878291;29;20297;-71
2023/01/09 21:22:59;;;;;;;8.50;1.70;;;6.00;99.90;;;;;;4866858;29;20212;-73
2023/01/09 21:25:26;;;;;;;2.67;1.23;;;6.00;99.90;;;;;;4878288;29;20233;-71
2023/01/09 21:27:53;;;;;;;5.93;2.00;;;6.00;99.90;;;;;;4872981;29;20754;-70
2023/01/09 21:30:20;;;;;;;6.83;2.10;;;6.00;99.90;;;;;;4875309;29;20723;-71
2023/01/09 21:32:46;;;;;;;9.30;1.80;;;6.10;99.90;;;;;;4875899;29;20215;-71
2023/01/09 21:35:15;;;;;;;3.43;1.67;;;6.10;99.90;;;;;;4878991;29;20241;-71
2023/01/09 21:37:43;;;;;;;5.10;1.73;;;6.10;99.90;;;;;;4876459;29;20239;-71
2023/01/09 21:40:13;;;;;;;4.13;1.87;;;6.00;99.90;;;;;;4875667;29;20212;-72
2023/01/09 21:48:09;;;;;;;6.70;1.60;;;5.90;99.90;;;;;;4878412;29;20303;-71
2023/01/09 21:50:37;;;;;;;5.83;1.70;;;6.00;99.90;;;;;;4880433;29;20222;-71
2023/01/09 21:53:04;;;;;;;4.83;1.60;;;6.00;99.90;;;;;;4877427;29;20212;-72
2023/01/09 21:55:31;;;;;;;2.90;1.57;;;6.10;99.90;;;;;;4878853;29;20279;-71
2023/01/09 21:57:59;;;;;;;5.23;1.40;;;6.10;99.90;;;;;;4865581;29;20272;-71
2023/01/09 22:00:27;;;;;;;10.43;1.60;;;6.10;99.90;;;;;;4878656;29;20214;-72
2023/01/09 22:02:54;;;;;;;9.07;1.80;;;6.10;99.90;;;;;;4871733;29;20216;-73
2023/01/09 22:05:23;;;;;;;6.40;1.87;;;6.10;99.90;;;;;;4877825;29;20234;-72
2023/01/09 22:07:51;;;;;;;5.47;1.50;;;6.00;99.90;;;;;;4870497;29;20223;-72
2023/01/09 22:10:18;;;;;;;5.27;1.70;;;5.90;99.90;;;;;;4877281;29;20204;-73
2023/01/09 22:15:26;;;;;;;2.67;1.13;;;5.90;99.90;;;;;;4869235;29;20234;-71
2023/01/09 22:17:52;;;;;;;7.53;1.60;;;5.80;99.90;;;;;;4879877;29;20239;-73
2023/01/09 22:20:19;;;;;;;4.57;1.30;;;5.80;99.90;;;;;;4880109;29;20683;-71
2023/01/09 22:22:48;;;;;;;4.47;1.50;;;5.70;99.90;;;;;;4879929;29;20211;-73
2023/01/09 22:25:16;;;;;;;6.13;1.40;;;5.70;99.90;;;;;;4880526;29;20243;-74
